Time;durP1;ratioP1;P1;durP2;ratioP2;P2;SDS_P1;SDS_P2;PMS_P1;PMS_P2;Temp;Humidity;BMP_temperature;BMP_pressure;BME280_temperature;BME280_humidity;BME280_pressure;Samples;Min_cycle;Max_cycle;Signal;HPM_P1;HPM_P2
2022/02/05 00:05:26;;;;;;;4.05;3.53;;;;;;;20.81;29.04;94340.09;4929942;28;20088;-68
2022/02/05 00:08:09;;;;;;;3.40;3.10;;;;;;;20.81;28.33;94343.56;4927140;28;20035;-67
2022/02/05 00:43:17;;;;;;;4.75;3.92;;;;;;;20.94;28.59;94358.06;4950210;28;20046;-67
2022/02/05 00:45:49;;;;;;;4.70;3.78;;;;;;;20.90;28.89;94357.03;4937846;28;20045;-67
2022/02/05 00:48:15;;;;;;;4.68;4.03;;;;;;;20.93;28.79;94359.16;4928816;28;20027;-67
2022/02/05 00:50:46;;;;;;;4.70;3.75;;;;;;;20.92;28.70;94360.19;4946075;28;20037;-67
2022/02/05 00:53:22;;;;;;;4.40;3.80;;;;;;;20.98;28.87;94361.81;4945329;29;20047;-67
2022/02/05 00:56:20;;;;;;;3.85;3.35;;;;;;;20.97;28.71;94360.22;4942930;29;20118;-67
2022/02/05 00:58:45;;;;;;;4.10;3.70;;;;;;;20.97;28.54;94357.56;4938904;28;20032;-67
2022/02/05 01:01:10;;;;;;;3.95;3.40;;;;;;;20.96;28.78;94358.63;4956396;28;20041;-67
2022/02/05 01:03:36;;;;;;;4.30;3.35;;;;;;;20.94;28.52;94360.72;4936301;28;20485;-67
2022/02/05 01:06:02;;;;;;;3.72;2.97;;;;;;;20.91;28.98;94363.91;4931222;28;20128;-67
2022/02/05 01:08:29;;;;;;;3.30;2.95;;;;;;;20.91;29.08;94374.47;4932761;28;20019;-67
2022/02/05 01:10:54;;;;;;;2.90;2.50;;;;;;;20.92;28.53;94368.13;4921970;28;20192;-68
2022/02/05 01:13:20;;;;;;;2.63;2.42;;;;;;;20.96;28.68;94376.31;4950354;28;20031;-67
2022/02/05 01:15:59;;;;;;;3.63;2.70;;;;;;;20.97;28.57;94384.00;4916545;29;20040;-67
2022/02/05 01:18:25;;;;;;;2.40;2.20;;;;;;;20.98;28.52;94380.31;4935130;28;20093;-67
2022/02/05 01:21:08;;;;;;;2.97;2.33;;;;;;;20.99;28.84;94384.53;4925289;28;20106;-68
2022/02/05 01:23:41;;;;;;;3.97;2.20;;;;;;;20.99;28.60;94389.81;4925475;28;20038;-67
2022/02/05 01:26:14;;;;;;;2.63;1.90;;;;;;;21.00;28.51;94399.34;4932909;28;20035;-67
2022/02/05 01:28:42;;;;;;;1.90;1.70;;;;;;;21.01;28.80;94398.28;4930516;28;20062;-67
2022/02/05 01:31:07;;;;;;;1.80;1.60;;;;;;;21.03;28.44;94404.09;4926680;28;20030;-67
2022/02/05 01:52:42;;;;;;;1.50;1.40;;;;;;;21.05;28.92;94428.41;4934282;28;20040;-67
2022/02/05 01:55:29;;;;;;;1.70;1.60;;;;;;;21.09;29.04;94434.78;4937832;28;20067;-67
2022/02/05 02:06:12;;;;;;;1.98;1.10;;;;;;;21.07;28.79;94441.38;4941525;28;20107;-67
2022/02/05 02:19:25;;;;;;;1.42;1.10;;;;;;;20.86;29.56;94443.97;4923894;28;20027;-67
2022/02/05 02:22:06;;;;;;;1.40;1.13;;;;;;;20.82;29.99;94450.06;4949927;28;20065;-67
2022/02/05 02:30:12;;;;;;;2.50;1.30;;;;;;;20.77;30.08;94460.59;4916859;29;20078;-67
2022/02/05 02:32:41;;;;;;;1.40;0.80;;;;;;;20.78;30.27;94470.13;4898480;29;20053;-66
2022/02/05 02:35:13;;;;;;;1.10;1.00;;;;;;;20.78;30.00;94467.50;4917337;29;20042;-67
2022/02/05 02:37:49;;;;;;;1.15;1.05;;;;;;;20.80;29.94;94470.66;4914760;29;20142;-67
2022/02/05 02:42:58;;;;;;;1.00;0.98;;;;;;;20.81;29.89;94483.63;4894156;29;20067;-67
2022/02/05 02:45:24;;;;;;;0.80;0.80;;;;;;;20.82;30.25;94479.13;4908878;29;20036;-67
2022/02/05 02:47:52;;;;;;;1.55;1.00;;;;;;;20.84;30.13;94487.59;4919231;29;20039;-68
2022/02/05 02:58:39;;;;;;;0.60;0.60;;;;;;;20.95;29.99;94509.56;4907017;29;20044;-67
2022/02/05 03:01:04;;;;;;;0.57;0.52;;;;;;;20.94;29.90;94511.41;4895325;29;20040;-67
2022/02/05 03:03:32;;;;;;;0.80;0.60;;;;;;;20.91;29.98;94511.94;4910755;29;20036;-67
2022/02/05 03:05:57;;;;;;;0.65;0.60;;;;;;;20.94;29.79;94514.03;4855972;29;20147;-67
2022/02/05 03:08:23;;;;;;;0.68;0.57;;;;;;;20.98;29.67;94515.13;4869951;29;20033;-67
2022/02/05 03:10:49;;;;;;;0.60;0.60;;;;;;;20.99;29.80;94521.22;4849292;29;20044;-67
2022/02/05 03:13:14;;;;;;;0.45;0.45;;;;;;;21.01;29.86;94519.09;4867802;29;20055;-67
2022/02/05 03:15:42;;;;;;;0.40;0.40;;;;;;;21.03;29.61;94531.00;4889902;29;20048;-68
2022/02/05 03:18:30;;;;;;;0.55;0.55;;;;;;;21.05;29.48;94533.38;4881569;29;20048;-67
2022/02/05 03:20:56;;;;;;;0.50;0.50;;;;;;;21.04;29.65;94532.59;4891966;29;20064;-67
2022/02/05 03:23:21;;;;;;;0.65;0.40;;;;;;;21.06;29.49;94535.78;4887839;29;20056;-67
2022/02/05 03:25:47;;;;;;;1.08;0.40;;;;;;;21.06;29.21;94545.56;4876773;29;20512;-67
2022/02/05 03:28:12;;;;;;;0.63;0.32;;;;;;;21.06;29.23;94546.34;4900797;29;20045;-67
2022/02/05 03:30:37;;;;;;;0.30;0.30;;;;;;;21.06;29.33;94551.63;4888548;29;20040;-67
2022/02/05 03:33:03;;;;;;;0.30;0.30;;;;;;;21.07;29.37;94558.50;4889952;29;20041;-68
2022/02/05 03:35:28;;;;;;;0.30;0.30;;;;;;;21.04;29.47;94559.03;4893927;28;20043;-67
2022/02/05 03:37:54;;;;;;;0.60;0.32;;;;;;;21.04;29.09;94561.69;4915705;28;20033;-67
2022/02/05 03:40:19;;;;;;;0.60;0.40;;;;;;;21.04;29.46;94577.53;4940560;28;20031;-68
2022/02/05 03:42:44;;;;;;;0.30;0.30;;;;;;;21.05;29.09;94573.81;4937556;28;20063;-67
2022/02/05 03:45:10;;;;;;;0.30;0.30;;;;;;;21.08;29.33;94583.91;4923228;28;20034;-67
2022/02/05 03:47:36;;;;;;;0.88;0.32;;;;;;;21.04;29.08;94580.19;4946964;28;20035;-67
2022/02/05 03:50:22;;;;;;;0.30;0.30;;;;;;;21.08;29.05;94581.25;4942199;28;20123;-67
2022/02/05 03:52:56;;;;;;;0.40;0.40;;;;;;;21.01;29.28;94585.97;4895185;29;20055;-67
2022/02/05 03:55:21;;;;;;;0.47;0.30;;;;;;;21.01;28.90;94593.91;4895228;29;20487;-67
2022/02/05 03:57:47;;;;;;;0.40;0.40;;;;;;;21.00;28.93;94583.59;4861210;29;20055;-67
2022/02/05 04:00:13;;;;;;;0.52;0.30;;;;;;;20.98;28.81;94594.44;4878623;29;20036;-67
2022/02/05 04:02:38;;;;;;;0.40;0.30;;;;;;;20.98;28.87;94598.91;4876661;29;20111;-67
2022/02/05 04:05:05;;;;;;;0.40;0.40;;;;;;;20.99;28.63;94597.88;4869097;29;20049;-68
2022/02/05 04:07:33;;;;;;;1.38;0.32;;;;;;;21.01;28.93;94606.34;4855027;29;20128;-67
2022/02/05 04:10:02;;;;;;;0.30;0.30;;;;;;;21.04;28.93;94606.63;4893502;29;20032;-67
2022/02/05 04:17:55;;;;;;;0.55;0.30;;;;;;;21.04;28.91;94622.50;4894263;29;20131;-68
2022/02/05 04:20:23;;;;;;;0.30;0.20;;;;;;;21.05;28.55;94624.06;4873624;29;20040;-67
2022/02/05 04:22:49;;;;;;;0.35;0.35;;;;;;;21.05;28.83;94618.78;4901915;28;20130;-67
2022/02/05 04:25:14;;;;;;;0.32;0.30;;;;;;;21.07;28.69;94619.31;4916110;28;20106;-67
2022/02/05 04:27:39;;;;;;;1.05;0.30;;;;;;;21.08;28.67;94615.63;4936713;28;20039;-67
2022/02/05 04:30:05;;;;;;;0.57;0.40;;;;;;;21.08;28.87;94623.56;4947702;28;20034;-67
2022/02/05 04:32:39;;;;;;;0.38;0.30;;;;;;;21.07;28.82;94627.25;4946561;28;20042;-68
2022/02/05 04:35:05;;;;;;;0.50;0.30;;;;;;;21.07;28.46;94635.19;4945946;28;20023;-67
2022/02/05 04:37:32;;;;;;;0.40;0.40;;;;;;;21.10;28.75;94641.81;4911927;28;20039;-67
2022/02/05 04:40:19;;;;;;;1.23;0.30;;;;;;;21.09;28.75;94629.63;4917855;28;20039;-67
2022/02/05 04:48:20;;;;;;;0.43;0.30;;;;;;;21.09;28.61;94651.59;4940500;29;20039;-67
2022/02/05 05:09:17;;;;;;;0.50;0.40;;;;;;;21.09;28.07;94675.41;4926087;28;20033;-68
2022/02/05 05:12:04;;;;;;;1.05;0.47;;;;;;;21.11;28.37;94677.78;4926753;28;20031;-68
2022/02/05 05:19:58;;;;;;;0.63;0.43;;;;;;;21.10;28.19;94692.06;4923400;29;20098;-67
2022/02/05 05:22:23;;;;;;;0.43;0.43;;;;;;;21.12;28.27;94705.03;4922480;29;20027;-67
2022/02/05 05:24:48;;;;;;;0.30;0.30;;;;;;;21.11;28.11;94696.28;4913206;29;20055;-67
2022/02/05 05:27:14;;;;;;;0.30;0.30;;;;;;;21.12;27.93;94705.03;4916610;29;20054;-68
2022/02/05 05:29:39;;;;;;;0.55;0.30;;;;;;;21.12;28.07;94692.59;4937452;29;20027;-67
2022/02/05 05:32:05;;;;;;;1.17;0.38;;;;;;;21.14;27.84;94695.00;4918964;28;20027;-67
2022/02/05 05:34:37;;;;;;;0.40;0.40;;;;;;;21.09;27.91;94701.03;4918266;29;20066;-67
2022/02/05 05:37:03;;;;;;;0.40;0.40;;;;;;;21.11;27.66;94706.84;4923194;29;20031;-67
2022/02/05 05:39:31;;;;;;;0.50;0.40;;;;;;;21.13;27.76;94701.31;4930237;28;20031;-68
2022/02/05 05:41:56;;;;;;;0.30;0.30;;;;;;;21.13;27.94;94704.75;4924610;29;20034;-68
2022/02/05 05:47:33;;;;;;;0.50;0.30;;;;;;;21.13;27.75;94709.25;4932796;28;20150;-67
2022/02/05 05:50:11;;;;;;;0.40;0.40;;;;;;;21.14;27.65;94710.84;4923526;28;20175;-67
2022/02/05 05:52:37;;;;;;;0.43;0.30;;;;;;;21.14;27.75;94724.06;4915351;29;20031;-67
2022/02/05 05:55:02;;;;;;;0.38;0.38;;;;;;;21.13;27.85;94725.13;4921460;28;20445;-67
2022/02/05 05:57:28;;;;;;;0.80;0.47;;;;;;;21.12;27.58;94724.31;4954495;28;20113;-67
2022/02/05 05:59:54;;;;;;;0.40;0.40;;;;;;;21.13;27.58;94720.63;4936741;28;20035;-67
2022/02/05 06:02:19;;;;;;;1.40;0.43;;;;;;;21.13;27.71;94725.13;4901605;28;20035;-67
2022/02/05 06:04:45;;;;;;;0.45;0.40;;;;;;;21.13;27.50;94720.63;4916851;28;20071;-67
2022/02/05 06:07:10;;;;;;;0.40;0.40;;;;;;;21.13;27.46;94733.06;4919904;28;20038;-67
2022/02/05 06:09:40;;;;;;;0.70;0.50;;;;;;;21.14;27.25;94732.00;4934214;28;20027;-67
2022/02/05 06:12:06;;;;;;;0.45;0.30;;;;;;;21.16;27.33;94729.91;4953457;28;20267;-67
2022/02/05 06:14:52;;;;;;;0.30;0.30;;;;;;;21.19;27.66;94738.13;4926406;28;20138;-67
2022/02/05 06:17:23;;;;;;;0.43;0.40;;;;;;;21.16;27.25;94740.47;4930421;28;20043;-68
2022/02/05 06:19:49;;;;;;;0.77;0.40;;;;;;;21.15;27.39;94741.53;4922759;29;20035;-67
2022/02/05 06:22:14;;;;;;;0.55;0.40;;;;;;;21.14;27.37;94751.31;4933296;29;20111;-67
2022/02/05 06:24:40;;;;;;;0.65;0.40;;;;;;;21.16;27.41;94751.06;4902194;29;20031;-68
2022/02/05 06:27:07;;;;;;;0.40;0.40;;;;;;;21.16;27.48;94751.06;4896898;29;20111;-67
2022/02/05 06:29:42;;;;;;;0.40;0.40;;;;;;;21.12;27.74;94750.78;4923745;29;20042;-67
2022/02/05 06:32:11;;;;;;;0.68;0.38;;;;;;;21.13;27.41;94759.50;4917814;29;20054;-68
2022/02/05 06:34:36;;;;;;;0.40;0.40;;;;;;;21.15;27.38;94760.84;4901023;29;20039;-68
2022/02/05 06:37:06;;;;;;;0.65;0.40;;;;;;;21.15;27.38;94757.38;4935898;29;20094;-67
2022/02/05 06:39:32;;;;;;;0.50;0.40;;;;;;;21.17;26.99;94757.94;4926616;29;20035;-67
2022/02/05 06:41:57;;;;;;;0.50;0.40;;;;;;;21.16;27.07;94769.56;4922485;29;20051;-67
2022/02/05 06:44:22;;;;;;;0.55;0.40;;;;;;;21.17;27.37;94773.78;4915576;29;20070;-67
2022/02/05 06:46:50;;;;;;;0.52;0.30;;;;;;;21.17;27.22;94774.63;4938644;29;20039;-67
2022/02/05 06:49:16;;;;;;;0.52;0.50;;;;;;;21.15;27.06;94771.44;4928077;28;20025;-67
2022/02/05 06:51:41;;;;;;;0.30;0.30;;;;;;;21.17;27.12;94773.78;4921671;28;20042;-67
2022/02/05 06:54:06;;;;;;;0.50;0.40;;;;;;;21.16;27.02;94778.28;4931843;28;20039;-67
2022/02/05 06:56:32;;;;;;;0.60;0.40;;;;;;;21.17;26.99;94787.03;4930811;28;20034;-67
2022/02/05 06:58:57;;;;;;;0.47;0.40;;;;;;;21.17;27.03;94785.19;4920326;28;20034;-67
2022/02/05 07:01:22;;;;;;;0.43;0.40;;;;;;;21.17;27.14;94789.66;4927557;28;20035;-67
2022/02/05 07:03:48;;;;;;;0.43;0.40;;;;;;;21.17;26.71;94794.94;4941846;28;20030;-67
2022/02/05 07:06:13;;;;;;;0.40;0.40;;;;;;;21.17;26.92;94801.06;4933741;28;20087;-67
2022/02/05 07:08:41;;;;;;;0.43;0.40;;;;;;;21.13;27.09;94805.25;4925574;28;20035;-68
2022/02/05 07:11:07;;;;;;;0.70;0.50;;;;;;;21.16;26.89;94814.53;4934782;28;20095;-67
2022/02/05 07:13:32;;;;;;;0.52;0.50;;;;;;;21.16;26.72;94810.03;4930025;28;20113;-67
2022/02/05 07:16:08;;;;;;;0.55;0.50;;;;;;;21.18;26.88;94809.78;4947451;28;20042;-68
2022/02/05 07:21:12;;;;;;;1.35;0.40;;;;;;;21.16;26.91;94804.75;4944245;29;20035;-67
2022/02/05 07:31:40;;;;;;;0.75;0.40;;;;;;;21.16;26.66;94827.75;4935998;28;20062;-67
2022/02/05 07:34:06;;;;;;;1.15;0.40;;;;;;;21.13;26.54;94822.97;4942775;28;20039;-67
2022/02/05 07:36:31;;;;;;;0.40;0.40;;;;;;;21.14;26.73;94816.63;4929676;28;20057;-66
2022/02/05 07:38:59;;;;;;;0.88;0.65;;;;;;;21.14;26.64;94814.78;4916389;29;20051;-67
2022/02/05 07:41:26;;;;;;;0.60;0.60;;;;;;;21.12;26.52;94814.25;4923658;28;20022;-67
2022/02/05 07:43:52;;;;;;;0.70;0.52;;;;;;;21.13;26.44;94815.81;4919767;28;20060;-67
2022/02/05 07:46:17;;;;;;;0.98;0.68;;;;;;;21.14;26.63;94814.78;4948972;28;20027;-67
2022/02/05 07:48:49;;;;;;;0.90;0.52;;;;;;;21.08;26.25;94811.31;4933751;28;20039;-67
2022/02/05 07:51:14;;;;;;;0.82;0.65;;;;;;;21.09;26.22;94810.25;4933345;28;20035;-67
2022/02/05 07:53:40;;;;;;;1.08;0.63;;;;;;;21.11;26.23;94814.47;4927843;28;20054;-67
2022/02/05 07:56:05;;;;;;;1.25;0.80;;;;;;;21.08;26.07;94827.16;4916238;28;20026;-67
2022/02/05 07:58:34;;;;;;;0.93;0.65;;;;;;;21.06;26.17;94820.53;4950033;28;20043;-66
2022/02/05 08:01:00;;;;;;;2.22;0.73;;;;;;;21.08;26.08;94823.72;4919598;28;20034;-67
2022/02/05 08:03:25;;;;;;;1.17;0.70;;;;;;;21.08;26.08;94824.53;4913579;29;20032;-67
2022/02/05 08:05:51;;;;;;;1.88;0.75;;;;;;;21.08;25.71;94829.81;4938814;28;20032;-67
2022/02/05 08:08:36;;;;;;;0.93;0.70;;;;;;;21.10;26.11;94829.56;4929303;29;20443;-67
2022/02/05 08:11:06;;;;;;;3.10;0.70;;;;;;;21.12;26.04;94837.25;4914332;29;20054;-66
2022/02/05 08:13:33;;;;;;;0.70;0.60;;;;;;;21.15;26.03;94834.91;4931626;29;20047;-67
2022/02/05 08:16:10;;;;;;;1.23;0.70;;;;;;;21.10;25.82;94834.84;4932597;29;20047;-67
2022/02/05 08:18:43;;;;;;;0.63;0.60;;;;;;;21.11;25.99;94833.78;4930379;29;20043;-67
2022/02/05 08:21:09;;;;;;;0.70;0.55;;;;;;;21.11;25.94;94833.00;4928164;29;20078;-67
2022/02/05 08:23:34;;;;;;;1.30;0.63;;;;;;;21.11;25.74;94838.28;4933987;28;20047;-67
2022/02/05 08:26:00;;;;;;;0.80;0.60;;;;;;;21.12;25.72;94839.91;4914863;29;20028;-66
2022/02/05 08:28:27;;;;;;;0.90;0.75;;;;;;;21.09;25.55;94844.63;4953832;28;20067;-66
2022/02/05 08:30:53;;;;;;;0.70;0.60;;;;;;;21.08;25.86;94850.97;4939983;28;20037;-67
2022/02/05 08:33:33;;;;;;;1.23;0.80;;;;;;;21.10;26.00;94856.00;4935943;29;20038;-66
2022/02/05 08:36:00;;;;;;;2.35;0.70;;;;;;;21.12;25.59;94859.19;4948198;28;20038;-67
2022/02/05 08:38:26;;;;;;;1.55;0.90;;;;;;;21.05;25.75;94848.03;4920836;28;20059;-67
2022/02/05 08:40:51;;;;;;;1.75;0.82;;;;;;;21.06;25.56;94863.63;4932845;28;20039;-66
2022/02/05 08:43:16;;;;;;;1.40;0.82;;;;;;;21.04;25.31;94860.44;4931454;28;20038;-66
2022/02/05 08:45:44;;;;;;;2.97;1.20;;;;;;;21.03;25.86;94858.84;4933877;28;20030;-67
2022/02/05 08:48:11;;;;;;;1.83;1.13;;;;;;;21.02;25.39;94857.25;4941613;28;20078;-66
2022/02/05 08:50:36;;;;;;;2.85;1.30;;;;;;;21.04;25.52;94857.81;4939833;28;20042;-67
2022/02/05 08:53:09;;;;;;;1.50;1.25;;;;;;;21.00;25.57;94859.38;4924527;29;20027;-68
2022/02/05 08:55:35;;;;;;;1.30;1.10;;;;;;;21.03;25.52;94858.06;4943496;28;20031;-67
2022/02/05 08:58:06;;;;;;;1.75;1.10;;;;;;;20.99;25.15;94860.41;4955883;28;20049;-66
2022/02/05 09:00:31;;;;;;;1.33;1.00;;;;;;;21.00;25.39;94863.84;4946448;28;20082;-67
2022/02/05 09:03:02;;;;;;;1.90;1.00;;;;;;;21.01;25.13;94858.31;4922415;29;20039;-66
2022/02/05 09:05:40;;;;;;;1.10;0.90;;;;;;;21.00;25.33;94864.66;4900054;29;20049;-66
2022/02/05 09:08:26;;;;;;;1.65;1.00;;;;;;;21.00;25.07;94877.06;4889739;29;20036;-66
2022/02/05 09:16:15;;;;;;;1.35;0.90;;;;;;;20.99;25.10;94881.56;4898941;29;20039;-66
2022/02/05 09:18:42;;;;;;;1.25;0.90;;;;;;;21.00;25.10;94885.00;4907094;29;20041;-67
2022/02/05 09:21:07;;;;;;;1.50;0.90;;;;;;;20.99;24.96;94884.19;4908156;29;20039;-67
2022/02/05 09:23:33;;;;;;;1.10;0.90;;;;;;;20.99;25.20;94881.56;4875872;29;20090;-67
2022/02/05 09:26:01;;;;;;;1.30;0.90;;;;;;;20.99;25.01;94883.41;4917065;29;20077;-67
2022/02/05 09:28:29;;;;;;;2.35;0.75;;;;;;;20.98;25.10;94879.97;4902077;29;20052;-66
2022/02/05 09:33:35;;;;;;;1.13;0.70;;;;;;;20.98;25.14;94893.19;4918124;29;20063;-66
2022/02/05 09:36:00;;;;;;;2.05;0.90;;;;;;;21.01;25.05;94897.97;4923107;29;20409;-66
2022/02/05 09:38:26;;;;;;;1.05;0.75;;;;;;;21.04;24.99;94897.47;4933197;28;20039;-67
2022/02/05 09:40:52;;;;;;;1.25;0.60;;;;;;;21.06;25.13;94905.94;4943682;29;20119;-66
2022/02/05 09:43:22;;;;;;;1.50;0.80;;;;;;;21.05;25.12;94904.34;4934327;28;20038;-67
2022/02/05 09:45:47;;;;;;;1.00;0.90;;;;;;;21.09;25.11;94904.63;4934049;29;20031;-67
2022/02/05 09:48:22;;;;;;;1.23;0.80;;;;;;;21.10;25.28;94906.25;4938149;28;20027;-67
2022/02/05 09:50:48;;;;;;;1.35;0.90;;;;;;;21.11;25.13;94907.03;4933727;28;20031;-66
2022/02/05 09:53:15;;;;;;;1.85;0.80;;;;;;;21.08;24.90;94914.44;4923499;28;20074;-66
2022/02/05 09:55:41;;;;;;;1.25;0.80;;;;;;;21.07;24.95;94907.53;4934475;28;20046;-67
2022/02/05 09:58:07;;;;;;;0.90;0.80;;;;;;;21.12;25.35;94916.59;4924424;28;20031;-67
2022/02/05 10:00:33;;;;;;;1.15;0.80;;;;;;;21.13;24.99;94911.00;4943549;28;20034;-67
2022/02/05 10:03:01;;;;;;;0.93;0.80;;;;;;;21.13;25.11;94905.72;4932148;28;20114;-66
2022/02/05 10:05:31;;;;;;;1.40;0.70;;;;;;;21.11;25.32;94901.75;4938830;28;20546;-66
2022/02/05 10:08:04;;;;;;;1.00;0.88;;;;;;;21.16;25.04;94915.03;4943253;28;20035;-66
2022/02/05 10:10:43;;;;;;;1.15;0.80;;;;;;;21.10;25.17;94914.19;4934768;28;20039;-67
2022/02/05 10:13:19;;;;;;;1.23;0.70;;;;;;;21.09;25.08;94917.88;4934075;28;20106;-67
2022/02/05 10:15:51;;;;;;;1.00;0.70;;;;;;;21.12;25.03;94908.66;4953402;28;20035;-66
2022/02/05 10:18:39;;;;;;;1.25;0.70;;;;;;;21.13;24.92;94910.22;4923959;28;20023;-66
2022/02/05 10:21:43;;;;;;;0.90;0.70;;;;;;;21.23;25.18;94920.91;4965107;28;20037;-66
2022/02/05 10:24:09;;;;;;;1.08;0.60;;;;;;;21.18;25.04;94920.84;4917252;29;20039;-66
2022/02/05 10:26:35;;;;;;;0.70;0.63;;;;;;;21.16;25.28;94926.41;4946833;28;20047;-67
2022/02/05 10:29:09;;;;;;;0.60;0.60;;;;;;;21.14;25.14;94919.78;4954741;28;20023;-67
2022/02/05 10:31:57;;;;;;;0.82;0.65;;;;;;;21.22;25.01;94920.09;4942386;28;20322;-67
2022/02/05 10:34:23;;;;;;;0.82;0.70;;;;;;;21.17;25.21;94916.59;4957883;28;20087;-67
2022/02/05 10:37:12;;;;;;;1.15;0.60;;;;;;;21.20;24.85;94918.75;4932179;28;20043;-68
2022/02/05 10:45:08;;;;;;;1.30;0.75;;;;;;;21.15;24.92;94908.13;4928099;28;20050;-67
2022/02/05 10:47:49;;;;;;;0.70;0.70;;;;;;;21.18;25.33;94923.50;4916553;28;20039;-67
2022/02/05 10:50:25;;;;;;;0.85;0.65;;;;;;;21.17;25.30;94911.31;4905611;29;20023;-67
2022/02/05 10:52:56;;;;;;;0.93;0.70;;;;;;;21.17;24.84;94911.31;4939120;28;20070;-67
2022/02/05 10:55:36;;;;;;;0.70;0.60;;;;;;;21.23;25.09;94916.41;4917148;28;20122;-68
2022/02/05 11:05:53;;;;;;;0.77;0.70;;;;;;;21.22;24.98;94914.81;4938942;28;20058;-67
2022/02/05 11:08:20;;;;;;;1.15;0.60;;;;;;;21.25;24.71;94905.59;4929013;28;20027;-67
2022/02/05 11:13:54;;;;;;;0.82;0.77;;;;;;;21.22;24.83;94908.72;4937002;28;20035;-67
2022/02/05 11:21:09;;;;;;;1.20;0.70;;;;;;;21.24;24.56;94891.53;4938638;29;20023;-67
2022/02/05 11:23:35;;;;;;;0.60;0.55;;;;;;;21.25;24.49;94890.50;4918984;28;20034;-67
2022/02/05 11:26:01;;;;;;;0.57;0.57;;;;;;;21.24;24.47;94891.53;4918616;28;20070;-67
2022/02/05 11:28:46;;;;;;;0.90;0.60;;;;;;;21.29;24.53;94890.81;4922333;28;20035;-67
2022/02/05 11:31:31;;;;;;;0.50;0.50;;;;;;;21.18;24.65;94892.56;4937500;28;20038;-68
2022/02/05 11:34:32;;;;;;;1.00;0.70;;;;;;;21.36;24.50;94894.03;4945807;28;20030;-67
2022/02/05 11:37:04;;;;;;;0.73;0.57;;;;;;;21.26;24.63;94888.66;4927174;29;20030;-67
2022/02/05 11:39:55;;;;;;;1.23;0.60;;;;;;;21.32;24.13;94892.94;4940634;28;20094;-67
2022/02/05 11:42:26;;;;;;;0.98;0.77;;;;;;;21.26;24.09;94889.44;4957042;28;20089;-66
2022/02/05 11:44:52;;;;;;;0.63;0.50;;;;;;;21.26;24.21;94889.44;4944378;28;20035;-66
2022/02/05 11:47:20;;;;;;;0.80;0.50;;;;;;;21.28;24.26;94892.66;4924477;29;20039;-66
2022/02/05 11:49:57;;;;;;;0.65;0.40;;;;;;;21.24;24.35;94888.91;4953728;28;20030;-66
2022/02/05 11:52:39;;;;;;;1.10;0.50;;;;;;;21.29;23.92;94888.94;4963933;28;20030;-67
2022/02/05 11:55:05;;;;;;;0.73;0.60;;;;;;;21.27;24.20;94885.75;4953190;28;20056;-67
2022/02/05 11:57:44;;;;;;;1.00;0.70;;;;;;;21.26;24.29;94886.00;4951373;28;20034;-67
2022/02/05 12:00:11;;;;;;;0.82;0.68;;;;;;;21.24;24.24;94885.47;4940745;28;20037;-67
2022/02/05 12:02:40;;;;;;;0.68;0.50;;;;;;;21.25;24.15;94881.78;4925120;28;20061;-67
2022/02/05 12:05:15;;;;;;;0.68;0.68;;;;;;;21.25;24.37;94890.50;4931470;28;20090;-67
2022/02/05 12:08:06;;;;;;;1.10;0.50;;;;;;;21.34;24.21;94890.03;4928450;29;20038;-67
2022/02/05 12:10:34;;;;;;;;;;;;;;;21.81;23.72;94884.81;4955624;28;20035;-68
2022/02/05 12:13:39;;;;;;;1.15;0.70;;;;;;;21.44;23.90;94883.00;4957476;28;19930;-68
2022/02/05 12:16:09;;;;;;;0.52;0.52;;;;;;;21.32;24.34;94886.84;4931445;28;20127;-67
2022/02/05 12:19:14;;;;;;;0.80;0.77;;;;;;;21.29;24.03;94882.88;4955401;28;20454;-67
2022/02/05 12:22:12;;;;;;;1.60;0.70;;;;;;;21.35;24.34;94881.84;4962091;28;20036;-67
2022/02/05 12:25:17;;;;;;;1.65;0.55;;;;;;;21.24;24.33;94883.59;4893894;29;20036;-68
2022/02/05 12:27:42;;;;;;;0.77;0.73;;;;;;;21.26;23.94;94888.66;4883143;29;20079;-67
2022/02/05 12:30:26;;;;;;;0.68;0.60;;;;;;;21.28;24.45;94887.38;4867332;29;20028;-67
2022/02/05 12:32:51;;;;;;;1.65;0.60;;;;;;;21.25;24.26;94882.56;4881016;29;20396;-67
2022/02/05 12:35:17;;;;;;;1.67;0.80;;;;;;;21.28;24.22;94878.63;4874437;29;20089;-67
2022/02/05 12:37:44;;;;;;;1.15;0.65;;;;;;;21.23;24.32;94881.25;4884112;29;20029;-67
2022/02/05 12:40:10;;;;;;;0.90;0.70;;;;;;;21.25;24.27;94877.28;4862500;29;20099;-67
2022/02/05 12:42:39;;;;;;;1.00;0.70;;;;;;;21.24;24.10;94880.97;4864863;29;20044;-67
2022/02/05 12:45:08;;;;;;;1.48;0.75;;;;;;;21.23;24.49;94873.31;4864043;29;20037;-67
2022/02/05 12:47:39;;;;;;;1.77;0.80;;;;;;;21.30;24.24;94868.56;4894874;29;20097;-67
2022/02/05 12:50:09;;;;;;;;;;;;;;;21.77;23.43;94878.44;4871065;29;20054;-67
2022/02/05 12:52:35;;;;;;;1.20;0.70;;;;;;;21.41;23.70;94870.25;4881906;29;19923;-67
2022/02/05 12:55:02;;;;;;;1.00;0.75;;;;;;;21.34;23.98;94879.44;4852670;29;20037;-67
2022/02/05 12:57:28;;;;;;;1.15;0.88;;;;;;;21.27;24.40;94877.03;4856279;29;20044;-67
2022/02/05 12:59:54;;;;;;;1.63;0.80;;;;;;;21.26;23.88;94878.84;4863942;29;20120;-67
2022/02/05 13:02:21;;;;;;;1.10;0.80;;;;;;;21.26;24.05;94867.50;4891197;28;20053;-67
2022/02/05 13:04:57;;;;;;;0.63;0.60;;;;;;;21.23;24.14;94868.81;4946325;28;20031;-67
2022/02/05 13:07:23;;;;;;;1.33;0.70;;;;;;;21.25;24.04;94873.84;4941682;28;20027;-67
2022/02/05 13:09:57;;;;;;;0.88;0.68;;;;;;;21.24;23.83;94869.59;4942866;28;20035;-67
2022/02/05 13:12:39;;;;;;;0.73;0.60;;;;;;;21.23;23.77;94868.81;4924371;28;20055;-67
2022/02/05 13:15:28;;;;;;;1.38;0.88;;;;;;;21.25;23.86;94868.56;4923669;28;20027;-67
2022/02/05 13:36:35;;;;;;;0.63;0.63;;;;;;;21.13;24.66;94858.13;4921989;29;20058;-67
2022/02/05 13:41:55;;;;;;;1.02;0.70;;;;;;;21.16;24.81;94846.25;4907173;29;20048;-67
2022/02/05 13:44:23;;;;;;;0.90;0.68;;;;;;;21.19;24.18;94846.56;4904647;29;20060;-68
2022/02/05 13:46:59;;;;;;;1.40;0.77;;;;;;;21.14;24.58;94837.78;4875730;29;20042;-68
2022/02/05 13:49:25;;;;;;;1.10;0.80;;;;;;;21.15;24.15;94845.47;4871660;29;20036;-68
2022/02/05 13:52:04;;;;;;;1.58;0.70;;;;;;;21.11;24.28;94828.50;4904181;29;20069;-68
2022/02/05 13:54:34;;;;;;;0.73;0.60;;;;;;;21.10;24.29;94837.50;4901502;29;20112;-68
2022/02/05 13:57:00;;;;;;;1.38;0.70;;;;;;;21.16;24.17;94833.84;4878788;29;20040;-68
2022/02/05 13:59:25;;;;;;;0.70;0.60;;;;;;;21.15;23.78;94826.97;4904361;29;20066;-68
2022/02/05 14:01:50;;;;;;;0.95;0.70;;;;;;;21.18;23.65;94839.66;4876685;29;20032;-68
2022/02/05 14:04:30;;;;;;;0.90;0.70;;;;;;;21.18;23.71;94834.38;4888765;29;20072;-68
2022/02/05 14:06:56;;;;;;;1.65;0.80;;;;;;;21.18;23.67;94839.66;4894963;29;20071;-68
2022/02/05 14:09:35;;;;;;;1.05;0.60;;;;;;;21.19;23.63;94835.97;4905789;29;20147;-68
2022/02/05 14:12:17;;;;;;;0.60;0.60;;;;;;;21.25;23.68;94836.81;4906850;28;20653;-68
2022/02/05 14:14:42;;;;;;;0.50;0.50;;;;;;;21.21;23.67;94836.53;4937859;28;20027;-68
2022/02/05 14:17:17;;;;;;;0.47;0.40;;;;;;;21.20;23.67;94831.47;4924256;28;20082;-68
2022/02/05 14:19:43;;;;;;;1.13;0.50;;;;;;;21.23;23.26;94836.28;4933904;28;20039;-68
2022/02/05 14:22:20;;;;;;;0.57;0.40;;;;;;;21.19;23.25;94833.34;4934760;28;20027;-68
2022/02/05 14:24:45;;;;;;;0.88;0.47;;;;;;;21.18;23.45;94836.22;4948099;28;20031;-68
2022/02/05 14:27:29;;;;;;;0.93;0.50;;;;;;;21.18;22.95;94837.03;4920583;28;20023;-68
2022/02/05 14:29:59;;;;;;;0.73;0.60;;;;;;;21.21;23.07;94838.34;4955258;28;20087;-68
2022/02/05 14:32:40;;;;;;;1.00;0.65;;;;;;;21.23;22.87;94839.72;4935455;28;20039;-68
2022/02/05 14:40:45;;;;;;;0.50;0.50;;;;;;;21.13;22.73;94834.31;4941733;28;20123;-68
2022/02/05 14:43:11;;;;;;;0.88;0.50;;;;;;;21.16;22.53;94844.41;4920987;28;20038;-68
2022/02/05 14:45:37;;;;;;;0.70;0.70;;;;;;;21.17;22.50;94843.38;4925473;29;20031;-68
2022/02/05 14:48:02;;;;;;;0.68;0.60;;;;;;;21.15;22.57;94840.19;4917748;28;20075;-68
2022/02/05 14:50:28;;;;;;;0.73;0.60;;;;;;;21.15;22.74;94834.06;4929119;28;20030;-68
2022/02/05 14:52:53;;;;;;;0.70;0.70;;;;;;;21.15;22.68;94826.16;4937424;29;20051;-67
2022/02/05 14:55:19;;;;;;;0.75;0.50;;;;;;;21.17;22.13;94824.03;4933713;29;20036;-68
2022/02/05 14:57:45;;;;;;;0.50;0.50;;;;;;;21.15;22.04;94821.69;4925318;28;20062;-68
2022/02/05 15:00:11;;;;;;;0.50;0.50;;;;;;;21.12;22.18;94827.47;4926007;28;20019;-68
2022/02/05 15:02:36;;;;;;;1.08;0.70;;;;;;;21.14;22.14;94825.34;4929563;28;20027;-68
2022/02/05 15:05:10;;;;;;;0.82;0.77;;;;;;;21.11;22.08;94827.72;4927674;29;20027;-68